| time (UTC) | temp F | wind direction | speed MPH | gust MPH | rain 1hr in | rain 24hr in | rain mn in | humidity % | barometer mb |
| 20260508011912 | 73 | 0.0 | 0.0 | 0.00 | 0.00 | 0.00 | 31 | 1021.0 | |
| 20260508010912 | 74 | 0.0 | 0.0 | 0.00 | 0.00 | 0.00 | 31 | 1020.9 | |
| 20260508005912 | 74 | 0.0 | 0.0 | 0.00 | 0.00 | 0.00 | 31 | 1020.7 | |
| 20260508004914 | 74 | 0.0 | 0.0 | 0.00 | 0.00 | 0.00 | 31 | 1020.6 | |
| 20260508003912 | 74 | 0.0 | 0.0 | 0.00 | 0.00 | 0.00 | 31 | 1020.4 | |
| 20260508002912 | 74 | 0.0 | 0.0 | 0.00 | 0.00 | 0.00 | 31 | 1020.4 | |
| 20260508001912 | 74 | 0.0 | 0.0 | 0.00 | 0.00 | 0.00 | 31 | 1020.2 | |
| 20260508000912 | 74 | 0.0 | 0.0 | 0.00 | 0.00 | 0.00 | 31 | 1020.2 | |
| 20260507235912 | 74 | 0.0 | 0.0 | 0.00 | 0.00 | 0.00 | 31 | 1020.1 | |
| 20260507234912 | 74 | 0.0 | 0.0 | 0.00 | 0.00 | 0.00 | 31 | 1020.0 | |
| 20260507233913 | 74 | 0.0 | 0.0 | 0.00 | 0.00 | 0.00 | 31 | 1019.9 | |
| 20260507232911 | 74 | 0.0 | 0.0 | 0.00 | 0.00 | 0.00 | 31 | 1019.7 | |
| 20260507231914 | 74 | 0.0 | 0.0 | 0.00 | 0.00 | 0.00 | 31 | 1019.8 | |
| 20260507230912 | 74 | 0.0 | 0.0 | 0.00 | 0.00 | 0.00 | 31 | 1019.7 | |
| 20260507225912 | 74 | 0.0 | 0.0 | 0.00 | 0.00 | 0.00 | 31 | 1019.6 | |
| 20260507224914 | 74 | 0.0 | 0.0 | 0.00 | 0.00 | 0.00 | 31 | 1019.5 | |
| 20260507223912 | 74 | 0.0 | 0.0 | 0.00 | 0.00 | 0.00 | 31 | 1019.5 | |
| 20260507222912 | 74 | 0.0 | 0.0 | 0.00 | 0.00 | 0.00 | 31 | 1019.5 | |
| 20260507221911 | 74 | 0.0 | 0.0 | 0.00 | 0.00 | 0.00 | 31 | 1019.4 | |
| 20260507220912 | 74 | 0.0 | 0.0 | 0.00 | 0.00 | 0.00 | 31 | 1019.2 | |
| 20260507215912 | 74 | 0.0 | 0.0 | 0.00 | 0.00 | 0.00 | 31 | 1019.1 | |
| 20260507214912 | 74 | 0.0 | 0.0 | 0.00 | 0.00 | 0.00 | 31 | 1019.0 | |
| 20260507213912 | 74 | 0.0 | 0.0 | 0.00 | 0.00 | 0.00 | 31 | 1019.1 | |
| 20260507212912 | 75 | 0.0 | 0.0 | 0.00 | 0.00 | 0.00 | 31 | 1019.0 | |
| 20260507211912 | 74 | 0.0 | 0.0 | 0.00 | 0.00 | 0.00 | 31 | 1018.9 | |
| 20260507210911 | 74 | 0.0 | 0.0 | 0.00 | 0.00 | 0.00 | 31 | 1018.8 | |
| 20260507205912 | 75 | 0.0 | 0.0 | 0.00 | 0.00 | 0.00 | 31 | 1018.6 | |
| 20260507204912 | 75 | 0.0 | 0.0 | 0.00 | 0.00 | 0.00 | 31 | 1018.5 | |
| 20260507203911 | 75 | 0.0 | 0.0 | 0.00 | 0.00 | 0.00 | 31 | 1018.5 | |
| 20260507202913 | 75 | 0.0 | 0.0 | 0.00 | 0.00 | 0.00 | 31 | 1018.5 | |
| 20260507201912 | 75 | 0.0 | 0.0 | 0.00 | 0.00 | 0.00 | 31 | 1018.3 | |
| 20260507200913 | 75 | 0.0 | 0.0 | 0.00 | 0.00 | 0.00 | 31 | 1018.3 | |
| 20260507195912 | 75 | 0.0 | 0.0 | 0.00 | 0.00 | 0.00 | 31 | 1018.1 | |
| 20260507194914 | 73 | 0.0 | 0.0 | 0.00 | 0.00 | 0.00 | 31 | 1016.1 | |
| 20260507193912 | 75 | 0.0 | 0.0 | 0.00 | 0.00 | 0.00 | 32 | 1017.8 | |
| 20260507192912 | 75 | 0.0 | 0.0 | 0.00 | 0.00 | 0.00 | 32 | 1017.6 | |
| 20260507191913 | 75 | 0.0 | 0.0 | 0.00 | 0.00 | 0.00 | 32 | 1017.5 | |
| 20260507190914 | 75 | 0.0 | 0.0 | 0.00 | 0.00 | 0.00 | 32 | 1017.3 | |
| 20260507185912 | 76 | 0.0 | 0.0 | 0.00 | 0.00 | 0.00 | 32 | 1017.2 | |
| 20260507184912 | 76 | 0.0 | 0.0 | 0.00 | 0.00 | 0.00 | 32 | 1017.1 | |
| 20260507183913 | 76 | 0.0 | 0.0 | 0.00 | 0.00 | 0.00 | 32 | 1017.0 | |
| 20260507182913 | 76 | 0.0 | 0.0 | 0.00 | 0.00 | 0.00 | 32 | 1016.9 | |
| 20260507181913 | 76 | 0.0 | 0.0 | 0.00 | 0.00 | 0.00 | 32 | 1016.7 | |
| 20260507180912 | 76 | 0.0 | 0.0 | 0.00 | 0.00 | 0.00 | 32 | 1016.5 | |
| 20260507175913 | 76 | 0.0 | 0.0 | 0.00 | 0.00 | 0.00 | 32 | 1016.4 | |
| 20260507174913 | 76 | 0.0 | 0.0 | 0.00 | 0.00 | 0.00 | 32 | 1016.2 | |
| 20260507173912 | 76 | 0.0 | 0.0 | 0.00 | 0.00 | 0.00 | 31 | 1016.1 | |
| 20260507172912 | 76 | 0.0 | 0.0 | 0.00 | 0.00 | 0.00 | 32 | 1015.9 | |
| 20260507171912 | 76 | 0.0 | 0.0 | 0.00 | 0.00 | 0.00 | 32 | 1015.7 | |
| 20260507170913 | 74 | 0.0 | 0.0 | 0.00 | 0.00 | 0.00 | 32 | 1013.6 | |
| 20260507165912 | 77 | 0.0 | 0.0 | 0.00 | 0.00 | 0.00 | 31 | 1015.6 | |
| 20260507164912 | 77 | 0.0 | 0.0 | 0.00 | 0.00 | 0.00 | 31 | 1015.4 | |
| 20260507163912 | 77 | 0.0 | 0.0 | 0.00 | 0.00 | 0.00 | 31 | 1015.3 | |
| 20260507162912 | 77 | 0.0 | 0.0 | 0.00 | 0.00 | 0.00 | 31 | 1015.1 | |
| 20260507161912 | 78 | 0.0 | 0.0 | 0.00 | 0.00 | 0.00 | 30 | 1015.1 | |
| 20260507160911 | 78 | 0.0 | 0.0 | 0.00 | 0.00 | 0.00 | 30 | 1015.0 | |
| 20260507155912 | 78 | 0.0 | 0.0 | 0.00 | 0.00 | 0.00 | 30 | 1015.0 | |
| 20260507154912 | 79 | 0.0 | 0.0 | 0.00 | 0.00 | 0.00 | 30 | 1015.0 | |
| 20260507153912 | 79 | 0.0 | 0.0 | 0.00 | 0.00 | 0.00 | 28 | 1014.9 | |
| 20260507152911 | 79 | 0.0 | 0.0 | 0.00 | 0.00 | 0.00 | 29 | 1014.8 | |
| 20260507151912 | 79 | 0.0 | 0.0 | 0.00 | 0.00 | 0.00 | 28 | 1014.6 | |
| 20260507150912 | 79 | 0.0 | 0.0 | 0.00 | 0.00 | 0.00 | 28 | 1014.6 | |
| 20260507145912 | 79 | 0.0 | 0.0 | 0.00 | 0.00 | 0.00 | 28 | 1014.5 | |
| 20260507144912 | 80 | 0.0 | 0.0 | 0.00 | 0.00 | 0.00 | 28 | 1014.4 | |
| 20260507143914 | 80 | 0.0 | 0.0 | 0.00 | 0.00 | 0.00 | 28 | 1014.4 | |
| 20260507142912 | 77 | 0.0 | 0.0 | 0.00 | 0.00 | 0.00 | 28 | 1011.4 | |
| 20260507141912 | 81 | 0.0 | 0.0 | 0.00 | 0.00 | 0.00 | 27 | 1014.3 | |
| 20260507140912 | 83 | 0.0 | 0.0 | 0.00 | 0.00 | 0.00 | 25 | 1014.3 | |
| 20260507135913 | 83 | 0.0 | 0.0 | 0.00 | 0.00 | 0.00 | 25 | 1014.2 | |
| 20260507134912 | 83 | 0.0 | 0.0 | 0.00 | 0.00 | 0.00 | 26 | 1014.2 | |
| 20260507133912 | 84 | 0.0 | 0.0 | 0.00 | 0.00 | 0.00 | 24 | 1014.1 | |
| 20260507132914 | 85 | 0.0 | 0.0 | 0.00 | 0.00 | 0.00 | 24 | 1014.1 | |
| 20260507131912 | 85 | 0.0 | 0.0 | 0.00 | 0.00 | 0.00 | 24 | 1013.9 | |
| 20260507130912 | 85 | 0.0 | 0.0 | 0.00 | 0.00 | 0.00 | 24 | 1014.0 | |
| 20260507125914 | 85 | 0.0 | 0.0 | 0.00 | 0.00 | 0.00 | 24 | 1013.8 | |
| 20260507124912 | 93 | 0.0 | 0.0 | 0.00 | 0.00 | 0.00 | 19 | 1013.9 | |
| 20260507123912 | 87 | 0.0 | 0.0 | 0.00 | 0.00 | 0.00 | 22 | 1013.7 | |
| 20260507122912 | 86 | 0.0 | 0.0 | 0.00 | 0.00 | 0.00 | 23 | 1013.7 | |
| 20260507121912 | 96 | 0.0 | 0.0 | 0.00 | 0.00 | 0.00 | 17 | 1013.7 | |
| 20260507120912 | 94 | 0.0 | 0.0 | 0.00 | 0.00 | 0.00 | 18 | 1013.7 | |
| 20260507115912 | 92 | 0.0 | 0.0 | 0.00 | 0.00 | 0.00 | 19 | 1013.7 | |
| 20260507114912 | 91 | 0.0 | 0.0 | 0.00 | 0.00 | 0.00 | 20 | 1013.7 | |
| 20260507113912 | 90 | 0.0 | 0.0 | 0.00 | 0.00 | 0.00 | 20 | 1013.1 | |
| 20260507112912 | 91 | 0.0 | 0.0 | 0.00 | 0.00 | 0.00 | 20 | 1013.7 | |
| 20260507111913 | 90 | 0.0 | 0.0 | 0.00 | 0.00 | 0.00 | 21 | 1013.7 | |
| 20260507110913 | 89 | 0.0 | 0.0 | 0.00 | 0.00 | 0.00 | 22 | 1013.6 | |
| 20260507105912 | 86 | 0.0 | 0.0 | 0.00 | 0.00 | 0.00 | 24 | 1013.5 | |
| 20260507104913 | 85 | 0.0 | 0.0 | 0.00 | 0.00 | 0.00 | 24 | 1013.6 | |
| 20260507103912 | 83 | 0.0 | 0.0 | 0.00 | 0.00 | 0.00 | 26 | 1013.6 | |
| 20260507102912 | 82 | 0.0 | 0.0 | 0.00 | 0.00 | 0.00 | 26 | 1013.5 | |
| 20260507101912 | 79 | 0.0 | 0.0 | 0.00 | 0.00 | 0.00 | 29 | 1013.5 | |
| 20260507100912 | 77 | 0.0 | 0.0 | 0.00 | 0.00 | 0.00 | 31 | 1013.4 | |
| 20260507095912 | 77 | 0.0 | 0.0 | 0.00 | 0.00 | 0.00 | 32 | 1013.4 | |
| 20260507094912 | 76 | 0.0 | 0.0 | 0.00 | 0.00 | 0.00 | 32 | 1013.4 | |
| 20260507093912 | 76 | 0.0 | 0.0 | 0.00 | 0.00 | 0.00 | 32 | 1013.5 | |
| 20260507092912 | 76 | 0.0 | 0.0 | 0.00 | 0.00 | 0.00 | 32 | 1013.4 | |
| 20260507091912 | 75 | 0.0 | 0.0 | 0.00 | 0.00 | 0.00 | 33 | 1013.3 | |
| 20260507090912 | 75 | 0.0 | 0.0 | 0.00 | 0.00 | 0.00 | 32 | 1013.4 | |
| 20260507085912 | 75 | 0.0 | 0.0 | 0.00 | 0.00 | 0.00 | 32 | 1013.4 | |
| 20260507084912 | 75 | 0.0 | 0.0 | 0.00 | 0.00 | 0.00 | 33 | 1013.3 | |
| 20260507083911 | 75 | 0.0 | 0.0 | 0.00 | 0.00 | 0.00 | 33 | 1013.4 | |
| 20260507082913 | 75 | 0.0 | 0.0 | 0.00 | 0.00 | 0.00 | 33 | 1013.4 | |
| 20260507081913 | 75 | 0.0 | 0.0 | 0.00 | 0.00 | 0.00 | 33 | 1013.3 | |
| 20260507080913 | 75 | 0.0 | 0.0 | 0.00 | 0.00 | 0.00 | 33 | 1013.3 | |
| 20260507075912 | 75 | 0.0 | 0.0 | 0.00 | 0.00 | 0.00 | 34 | 1013.3 | |
| 20260507074913 | 75 | 0.0 | 0.0 | 0.00 | 0.00 | 0.00 | 34 | 1013.3 | |
| 20260507073912 | 75 | 0.0 | 0.0 | 0.00 | 0.00 | 0.00 | 34 | 1013.3 | |
| 20260507072912 | 75 | 0.0 | 0.0 | 0.00 | 0.00 | 0.00 | 35 | 1013.2 | |
| 20260507071912 | 75 | 0.0 | 0.0 | 0.00 | 0.00 | 0.00 | 35 | 1013.3 | |
| 20260507070911 | 74 | 0.0 | 0.0 | 0.00 | 0.00 | 0.00 | 34 | 1013.2 | |
| 20260507065913 | 75 | 0.0 | 0.0 | 0.00 | 0.00 | 0.00 | 33 | 1013.3 | |
| 20260507064912 | 75 | 0.0 | 0.0 | 0.00 | 0.00 | 0.00 | 33 | 1013.2 | |
| 20260507063912 | 74 | 0.0 | 0.0 | 0.00 | 0.00 | 0.00 | 33 | 1013.2 | |
| 20260507062912 | 74 | 0.0 | 0.0 | 0.00 | 0.00 | 0.00 | 34 | 1013.2 | |
| 20260507061912 | 74 | 0.0 | 0.0 | 0.00 | 0.00 | 0.00 | 34 | 1013.2 | |
| 20260507060911 | 74 | 0.0 | 0.0 | 0.00 | 0.00 | 0.00 | 34 | 1013.1 | |
| 20260507055912 | 74 | 0.0 | 0.0 | 0.00 | 0.00 | 0.00 | 35 | 1013.0 | |
| 20260507054913 | 73 | 0.0 | 0.0 | 0.00 | 0.00 | 0.00 | 36 | 1013.0 | |
| 20260507053913 | 73 | 0.0 | 0.0 | 0.00 | 0.00 | 0.00 | 36 | 1013.0 | |
| 20260507052912 | 73 | 0.0 | 0.0 | 0.00 | 0.00 | 0.00 | 36 | 1012.9 | |
| 20260507051911 | 73 | 0.0 | 0.0 | 0.00 | 0.00 | 0.00 | 36 | 1012.8 | |
| 20260507050912 | 73 | 0.0 | 0.0 | 0.00 | 0.00 | 0.00 | 36 | 1012.8 | |
| 20260507045912 | 73 | 0.0 | 0.0 | 0.00 | 0.00 | 0.00 | 36 | 1012.8 | |
| 20260507044912 | 73 | 0.0 | 0.0 | 0.00 | 0.00 | 0.00 | 36 | 1012.8 | |
| 20260507043912 | 70 | 0.0 | 0.0 | 0.00 | 0.00 | 0.00 | 36 | 1010.1 | |
| 20260507042912 | 73 | 0.0 | 0.0 | 0.00 | 0.00 | 0.00 | 36 | 1012.7 | |
| 20260507041913 | 73 | 0.0 | 0.0 | 0.00 | 0.00 | 0.00 | 35 | 1012.7 | |
| 20260507040912 | 72 | 0.0 | 0.0 | 0.00 | 0.00 | 0.00 | 35 | 1012.7 | |
| 20260507035912 | 73 | 0.0 | 0.0 | 0.00 | 0.00 | 0.00 | 35 | 1012.8 | |
| 20260507034912 | 73 | 0.0 | 0.0 | 0.00 | 0.00 | 0.00 | 36 | 1012.6 | |
| 20260507033912 | 73 | 0.0 | 0.0 | 0.00 | 0.00 | 0.00 | 36 | 1012.6 | |
| 20260507032912 | 73 | 0.0 | 0.0 | 0.00 | 0.00 | 0.00 | 36 | 1012.5 | |
| 20260507031912 | 72 | 0.0 | 0.0 | 0.00 | 0.00 | 0.00 | 36 | 1012.5 | |
| 20260507030912 | 73 | 0.0 | 0.0 | 0.00 | 0.00 | 0.00 | 37 | 1012.5 | |
| 20260507025912 | 73 | 0.0 | 0.0 | 0.00 | 0.00 | 0.00 | 37 | 1012.5 | |
| 20260507024912 | 73 | 0.0 | 0.0 | 0.00 | 0.00 | 0.00 | 37 | 1012.4 | |
| 20260507023912 | 73 | 0.0 | 0.0 | 0.00 | 0.00 | 0.00 | 37 | 1012.4 | |
| 20260507022912 | 73 | 0.0 | 0.0 | 0.00 | 0.00 | 0.00 | 37 | 1012.3 | |
| 20260507021915 | 73 | 0.0 | 0.0 | 0.00 | 0.00 | 0.00 | 38 | 1012.3 | |
| 20260507020913 | 73 | 0.0 | 0.0 | 0.00 | 0.00 | 0.00 | 37 | 1012.3 | |
| 20260507015912 | 73 | 0.0 | 0.0 | 0.00 | 0.00 | 0.00 | 37 | 1012.3 | |
| 20260507014912 | 73 | 0.0 | 0.0 | 0.00 | 0.00 | 0.00 | 37 | 1012.3 | |
| 20260507013912 | 73 | 0.0 | 0.0 | 0.00 | 0.00 | 0.00 | 37 | 1012.3 | |
| 20260507012912 | 73 | 0.0 | 0.0 | 0.00 | 0.00 | 0.00 | 37 | 1012.3 |